^^
Grace C. Lehan Memorial Weather Station Historical Data
Daily Summary for February 5, 2022 Units:  Both    English   Metric
Daily Weekly Monthly Yearly
  High: Low: Average:
Temperature: 27.9 °F /  -2.3 °C 16.3 °F /  -8.7 °C 23 °F /  -5 °C
Dew Point: 26.4 °F /  -3.1 °C 5.3 °F /  -14.8 °C 14.3 °F /  -9.8 °C
Humidity: 94% 44.8% 70%
Wind Speed: 13.5mph /  21.7km/h - 5mph /  8km/h
Wind Gust: 26mph /  41.8km/h - -
Wind- - NW
Pressure: 30.53 in /  1033.7 hPa 29.93 in /  1013.4 hPa -
Precipitation: 0.00 in /  0 mm    
 
 
Tabular Data for February 5, 2022
Time Temperature Dew Point Pressure Wind Wind Speed Wind Gust Humidity Rainfall Rate (Hourly) solar
00:04 27.9 °F /  -2.3 °C 26.4 °F /  -3.1 °C 29.96in /  1014.4hPa NW 4.4mph /  7.1km/h 12mph /  19.3km/h 94% 0.00in /  0mm 0 W/m2
00:09 27.6 °F /  -2.4 °C 26 °F /  -3.3 °C 29.97in /  1014.8hPa WNW 5mph /  8km/h 12mph /  19.3km/h 93.3% 0.00in /  0mm 0 W/m2
00:14 27.4 °F /  -2.6 °C 25.6 °F /  -3.6 °C 29.97in /  1014.8hPa NW 4.3mph /  6.9km/h 12mph /  19.3km/h 93% 0.00in /  0mm 0 W/m2
00:19 27.2 °F /  -2.7 °C 25.4 °F /  -3.7 °C 29.97in /  1014.8hPa WNW 3.3mph /  5.3km/h 12mph /  19.3km/h 93% 0.00in /  0mm 0 W/m2
00:24 27 °F /  -2.8 °C 25 °F /  -3.9 °C 29.96in /  1014.4hPa NW 4.6mph /  7.4km/h 14mph /  22.5km/h 92.4% 0.00in /  0mm 0 W/m2
00:29 26.8 °F /  -2.9 °C 24.8 °F /  -4 °C 29.95in /  1014.1hPa WNW 3.4mph /  5.5km/h 14mph /  22.5km/h 92% 0.00in /  0mm 0 W/m2
00:34 26.7 °F /  -2.9 °C 24.7 °F /  -4.1 °C 29.95in /  1014.1hPa NW 5.8mph /  9.3km/h 14mph /  22.5km/h 92% 0.00in /  0mm 0 W/m2
00:39 26.5 °F /  -3.1 °C 24.5 °F /  -4.2 °C 29.96in /  1014.4hPa NW 3.9mph /  6.3km/h 12mph /  19.3km/h 92% 0.00in /  0mm 0 W/m2
00:44 26.4 °F /  -3.1 °C 24.4 °F /  -4.2 °C 29.96in /  1014.4hPa NW 5.2mph /  8.4km/h 12mph /  19.3km/h 92% 0.00in /  0mm 0 W/m2
00:49 26.3 °F /  -3.2 °C 24.3 °F /  -4.3 °C 29.95in /  1014.1hPa NW 4mph /  6.4km/h 12mph /  19.3km/h 92% 0.00in /  0mm 0 W/m2
00:54 26.3 °F /  -3.2 °C 24.3 °F /  -4.3 °C 29.95in /  1014.1hPa WNW 1.1mph /  1.8km/h 12mph /  19.3km/h 92% 0.00in /  0mm 0 W/m2
00:59 26.3 °F /  -3.2 °C 24.3 °F /  -4.3 °C 29.95in /  1014.1hPa WNW 1.3mph /  2.1km/h 12mph /  19.3km/h 92% 0.00in /  0mm 0 W/m2
01:04 26.3 °F /  -3.2 °C 24.3 °F /  -4.3 °C 29.94in /  1013.8hPa WNW 2.6mph /  4.2km/h 12mph /  19.3km/h 92% 0.00in /  0mm 0 W/m2
01:09 26.3 °F /  -3.2 °C 24.3 °F /  -4.3 °C 29.94in /  1013.8hPa WNW 2.3mph /  3.7km/h 10mph /  16.1km/h 92% 0.00in /  0mm 0 W/m2
01:14 26.2 °F /  -3.2 °C 24.2 °F /  -4.3 °C 29.94in /  1013.8hPa WNW 2.8mph /  4.5km/h 10mph /  16.1km/h 92% 0.00in /  0mm 0 W/m2
01:19 26.1 °F /  -3.3 °C 24.1 °F /  -4.4 °C 29.95in /  1014.1hPa NW 1.7mph /  2.7km/h 10mph /  16.1km/h 92% 0.00in /  0mm 0 W/m2
01:24 26 °F /  -3.3 °C 24 °F /  -4.4 °C 29.95in /  1014.1hPa WNW 2.5mph /  4km/h 10mph /  16.1km/h 92% 0.00in /  0mm 0 W/m2
01:29 25.9 °F /  -3.4 °C 23.8 °F /  -4.6 °C 29.95in /  1014.1hPa WNW 4.9mph /  7.9km/h 11mph /  17.7km/h 91.8% 0.00in /  0mm 0 W/m2
01:34 25.7 °F /  -3.5 °C 23.4 °F /  -4.8 °C 29.95in /  1014.1hPa WNW 3.4mph /  5.5km/h 11mph /  17.7km/h 91.1% 0.00in /  0mm 0 W/m2
01:39 25.6 °F /  -3.6 °C 23.3 °F /  -4.8 °C 29.94in /  1013.8hPa WNW 1.9mph /  3.1km/h 9mph /  14.5km/h 91% 0.00in /  0mm 0 W/m2
01:44 25.5 °F /  -3.6 °C 23.2 °F /  -4.9 °C 29.94in /  1013.8hPa WNW 0.8mph /  1.3km/h 9mph /  14.5km/h 91% 0.00in /  0mm 0 W/m2
01:49 25.4 °F /  -3.7 °C 23.1 °F /  -4.9 °C 29.94in /  1013.8hPa WNW 3.2mph /  5.1km/h 9mph /  14.5km/h 91% 0.00in /  0mm 0 W/m2
01:54 25.3 °F /  -3.7 °C 23 °F /  -5 °C 29.94in /  1013.8hPa WNW 2mph /  3.2km/h 9mph /  14.5km/h 91% 0.00in /  0mm 0 W/m2
01:59 25.2 °F /  -3.8 °C 22.9 °F /  -5.1 °C 29.95in /  1014.1hPa WNW 3.9mph /  6.3km/h 12mph /  19.3km/h 91% 0.00in /  0mm 0 W/m2
02:04 25 °F /  -3.9 °C 22.6 °F /  -5.2 °C 29.95in /  1014.1hPa NW 2.7mph /  4.3km/h 12mph /  19.3km/h 90.5% 0.00in /  0mm 0 W/m2
02:09 24.8 °F /  -4 °C 22.3 °F /  -5.4 °C 29.95in /  1014.1hPa NW 2.4mph /  3.9km/h 10mph /  16.1km/h 90% 0.00in /  0mm 0 W/m2
02:14 24.8 °F /  -4 °C 22.5 °F /  -5.3 °C 29.95in /  1014.1hPa WNW 0.6mph /  1km/h 10mph /  16.1km/h 90.7% 0.00in /  0mm 0 W/m2
02:19 24.7 °F /  -4.1 °C 22.5 °F /  -5.3 °C 29.95in /  1014.1hPa WNW 2.1mph /  3.4km/h 11mph /  17.7km/h 91% 0.00in /  0mm 0 W/m2
02:24 24.7 °F /  -4.1 °C 22.5 °F /  -5.3 °C 29.95in /  1014.1hPa WNW 1.8mph /  2.9km/h 11mph /  17.7km/h 91% 0.00in /  0mm 0 W/m2
02:29 24.7 °F /  -4.1 °C 22.4 °F /  -5.3 °C 29.95in /  1014.1hPa NW 1.9mph /  3.1km/h 11mph /  17.7km/h 90.8% 0.00in /  0mm 0 W/m2
02:34 24.5 °F /  -4.2 °C 22 °F /  -5.6 °C 29.95in /  1014.1hPa WNW 1.1mph /  1.8km/h 11mph /  17.7km/h 90% 0.00in /  0mm 0 W/m2
02:39 24.5 °F /  -4.2 °C 22 °F /  -5.6 °C 29.94in /  1013.8hPa WNW 0.1mph /  0.2km/h 7mph /  11.3km/h 90% 0.00in /  0mm 0 W/m2
02:44 24.5 °F /  -4.2 °C 22.1 °F /  -5.5 °C 29.94in /  1013.8hPa NW 0.8mph /  1.3km/h 7mph /  11.3km/h 90.3% 0.00in /  0mm 0 W/m2
02:49 24.5 °F /  -4.2 °C 22.3 °F /  -5.4 °C 29.93in /  1013.4hPa NW 0.8mph /  1.3km/h 7mph /  11.3km/h 91% 0.00in /  0mm 0 W/m2
02:54 24.4 °F /  -4.2 °C 22.1 °F /  -5.5 °C 29.93in /  1013.4hPa NW 4.2mph /  6.8km/h 11mph /  17.7km/h 90.4% 0.00in /  0mm 0 W/m2
02:59 24.2 °F /  -4.3 °C 21.7 °F /  -5.7 °C 29.93in /  1013.4hPa NW 4.6mph /  7.4km/h 11mph /  17.7km/h 90% 0.00in /  0mm 0 W/m2
03:04 23.9 °F /  -4.5 °C 21.2 °F /  -6 °C 29.94in /  1013.8hPa WNW 4mph /  6.4km/h 11mph /  17.7km/h 89.2% 0.00in /  0mm 0 W/m2
03:09 23.8 °F /  -4.6 °C 21 °F /  -6.1 °C 29.94in /  1013.8hPa NNW 2mph /  3.2km/h 10mph /  16.1km/h 89% 0.00in /  0mm 0 W/m2
03:14 23.7 °F /  -4.6 °C 20.9 °F /  -6.2 °C 29.94in /  1013.8hPa NW 4.3mph /  6.9km/h 13mph /  20.9km/h 89% 0.00in /  0mm 0 W/m2
03:19 23.5 °F /  -4.7 °C 20.6 °F /  -6.3 °C 29.94in /  1013.8hPa NW 2.4mph /  3.9km/h 13mph /  20.9km/h 88.4% 0.00in /  0mm 0 W/m2
03:24 23.4 °F /  -4.8 °C 20.4 °F /  -6.4 °C 29.93in /  1013.4hPa WNW 2mph /  3.2km/h 13mph /  20.9km/h 88.2% 0.00in /  0mm 0 W/m2
03:29 23.4 °F /  -4.8 °C 20.6 °F /  -6.3 °C 29.93in /  1013.4hPa WNW 2.4mph /  3.9km/h 13mph /  20.9km/h 89% 0.00in /  0mm 0 W/m2
03:34 23.4 °F /  -4.8 °C 20.6 °F /  -6.3 °C 29.94in /  1013.8hPa NW 3.6mph /  5.8km/h 13mph /  20.9km/h 89% 0.00in /  0mm 0 W/m2
03:39 23.3 °F /  -4.8 °C 20.5 °F /  -6.4 °C 29.95in /  1014.1hPa WNW 5.8mph /  9.3km/h 12mph /  19.3km/h 88.7% 0.00in /  0mm 0 W/m2
03:44 23.2 °F /  -4.9 °C 20.2 °F /  -6.6 °C 29.96in /  1014.4hPa WNW 3.5mph /  5.6km/h 12mph /  19.3km/h 88% 0.00in /  0mm 0 W/m2
03:49 23.2 °F /  -4.9 °C 20.2 °F /  -6.6 °C 29.96in /  1014.4hPa NW 2.9mph /  4.7km/h 12mph /  19.3km/h 88% 0.00in /  0mm 0 W/m2
03:54 23.2 °F /  -4.9 °C 20.2 °F /  -6.6 °C 29.96in /  1014.4hPa WNW 2.2mph /  3.5km/h 12mph /  19.3km/h 88% 0.00in /  0mm 0 W/m2
03:59 23.2 °F /  -4.9 °C 20.2 °F /  -6.6 °C 29.97in /  1014.8hPa NW 0.8mph /  1.3km/h 12mph /  19.3km/h 88% 0.00in /  0mm 0 W/m2
04:04 23.3 °F /  -4.8 °C 20.2 °F /  -6.6 °C 29.97in /  1014.8hPa WNW 3.5mph /  5.6km/h 12mph /  19.3km/h 88% 0.00in /  0mm 0 W/m2
04:09 23.2 °F /  -4.9 °C 20.2 °F /  -6.6 °C 29.97in /  1014.8hPa NW 2.2mph /  3.5km/h 7mph /  11.3km/h 88% 0.00in /  0mm 0 W/m2
04:14 23.2 °F /  -4.9 °C 20.2 °F /  -6.6 °C 29.97in /  1014.8hPa WNW 2.2mph /  3.5km/h 7mph /  11.3km/h 88% 0.00in /  0mm 0 W/m2
04:19 23.2 °F /  -4.9 °C 20.1 °F /  -6.6 °C 29.97in /  1014.8hPa WNW 1.1mph /  1.8km/h 7mph /  11.3km/h 88% 0.00in /  0mm 0 W/m2
04:24 23.2 °F /  -4.9 °C 20.3 °F /  -6.5 °C 29.98in /  1015.1hPa WNW 0.8mph /  1.3km/h 7mph /  11.3km/h 88.6% 0.00in /  0mm 0 W/m2
04:29 23.2 °F /  -4.9 °C 20.4 °F /  -6.4 °C 29.98in /  1015.1hPa NW 1.1mph /  1.8km/h 7mph /  11.3km/h 89% 0.00in /  0mm 0 W/m2
04:34 23.1 °F /  -4.9 °C 20.4 °F /  -6.4 °C 29.98in /  1015.1hPa NW 0.7mph /  1.1km/h 7mph /  11.3km/h 89% 0.00in /  0mm 0 W/m2
04:39 23.1 °F /  -4.9 °C 20.3 °F /  -6.5 °C 29.98in /  1015.1hPa NW 1.4mph /  2.3km/h 5mph /  8km/h 88.8% 0.00in /  0mm 0 W/m2
04:44 23.1 °F /  -4.9 °C 20.1 °F /  -6.6 °C 29.98in /  1015.1hPa Calm   5mph /  8km/h 88.1% 0.00in /  0mm 0 W/m2
04:49 23.1 °F /  -4.9 °C 20.2 °F /  -6.6 °C 29.98in /  1015.1hPa WNW 1.7mph /  2.7km/h 6mph /  9.7km/h 88.7% 0.00in /  0mm 0 W/m2
04:54 23 °F /  -5 °C 20 °F /  -6.7 °C 29.98in /  1015.1hPa WNW 0.2mph /  0.3km/h 6mph /  9.7km/h 88% 0.00in /  0mm 0 W/m2
04:59 23 °F /  -5 °C 20 °F /  -6.7 °C 29.98in /  1015.1hPa Calm   6mph /  9.7km/h 88% 0.00in /  0mm 0 W/m2
05:04 23 °F /  -5 °C 20.2 °F /  -6.6 °C 29.99in /  1015.5hPa WNW 1.5mph /  2.4km/h 6mph /  9.7km/h 88.7% 0.00in /  0mm 0 W/m2
05:09 23 °F /  -5 °C 20 °F /  -6.7 °C 29.99in /  1015.5hPa WNW 0.1mph /  0.2km/h 6mph /  9.7km/h 88% 0.00in /  0mm 0 W/m2
05:14 23 °F /  -5 °C 20 °F /  -6.7 °C 30.00in /  1015.8hPa WNW 1.1mph /  1.8km/h 6mph /  9.7km/h 88% 0.00in /  0mm 0 W/m2
05:19 23 °F /  -5 °C 20 °F /  -6.7 °C 30.00in /  1015.8hPa WNW 0.9mph /  1.4km/h 6mph /  9.7km/h 88% 0.00in /  0mm 0 W/m2
05:24 23 °F /  -5 °C 20 °F /  -6.7 °C 29.99in /  1015.5hPa NW 4.6mph /  7.4km/h 9mph /  14.5km/h 88% 0.00in /  0mm 0 W/m2
05:29 22.9 °F /  -5.1 °C 19.7 °F /  -6.8 °C 30.00in /  1015.8hPa WNW 6mph /  9.7km/h 11mph /  17.7km/h 87.4% 0.00in /  0mm 0 W/m2
05:34 22.7 °F /  -5.2 °C 19.5 °F /  -6.9 °C 30.00in /  1015.8hPa NW 3.1mph /  5km/h 11mph /  17.7km/h 87% 0.00in /  0mm 0 W/m2
05:39 22.7 °F /  -5.2 °C 19.4 °F /  -7 °C 30.00in /  1015.8hPa WNW 2.1mph /  3.4km/h 10mph /  16.1km/h 87% 0.00in /  0mm 0 W/m2
05:44 22.7 °F /  -5.2 °C 19.4 °F /  -7 °C 30.00in /  1015.8hPa NW 1.9mph /  3.1km/h 10mph /  16.1km/h 87% 0.00in /  0mm 0 W/m2
05:49 22.7 °F /  -5.2 °C 19.4 °F /  -7 °C 30.00in /  1015.8hPa WNW 2.6mph /  4.2km/h 10mph /  16.1km/h 87% 0.00in /  0mm 0 W/m2
05:54 22.6 °F /  -5.2 °C 19.3 °F /  -7.1 °C 30.01in /  1016.1hPa WNW 5.3mph /  8.5km/h 15mph /  24.1km/h 87% 0.00in /  0mm 0 W/m2
05:59 22.5 °F /  -5.3 °C 19 °F /  -7.2 °C 30.01in /  1016.1hPa NW 8.6mph /  13.8km/h 16mph /  25.7km/h 86.2% 0.00in /  0mm 0 W/m2
06:04 22.4 °F /  -5.3 °C 18.5 °F /  -7.5 °C 30.02in /  1016.5hPa NW 4.3mph /  6.9km/h 16mph /  25.7km/h 85.1% 0.00in /  0mm 0 W/m2
06:09 22.2 °F /  -5.4 °C 18.2 °F /  -7.7 °C 30.02in /  1016.5hPa NW 7.1mph /  11.4km/h 15mph /  24.1km/h 84.4% 0.00in /  0mm 0 W/m2
06:14 22.1 °F /  -5.5 °C 17.9 °F /  -7.8 °C 30.02in /  1016.5hPa NW 5.8mph /  9.3km/h 17mph /  27.4km/h 83.7% 0.00in /  0mm 0 W/m2
06:19 22 °F /  -5.6 °C 17.6 °F /  -8 °C 30.02in /  1016.5hPa NW 7.7mph /  12.4km/h 17mph /  27.4km/h 83.1% 0.00in /  0mm 0 W/m2
06:24 21.8 °F /  -5.7 °C 17.5 °F /  -8.1 °C 30.02in /  1016.5hPa NW 6.6mph /  10.6km/h 17mph /  27.4km/h 83% 0.00in /  0mm 0 W/m2
06:29 21.6 °F /  -5.8 °C 17.1 °F /  -8.3 °C 30.02in /  1016.5hPa NW 9.3mph /  15km/h 21mph /  33.8km/h 82.2% 0.00in /  0mm 0 W/m2
06:34 21.5 °F /  -5.8 °C 16.8 °F /  -8.4 °C 30.03in /  1016.8hPa NW 8.4mph /  13.5km/h 21mph /  33.8km/h 82% 0.00in /  0mm 0 W/m2
06:39 21.3 °F /  -5.9 °C 16.7 °F /  -8.5 °C 30.03in /  1016.8hPa NW 5.8mph /  9.3km/h 20mph /  32.2km/h 82% 0.00in /  0mm 0 W/m2
06:44 21.2 °F /  -6 °C 16.6 °F /  -8.6 °C 30.04in /  1017.2hPa NW 6.2mph /  10km/h 20mph /  32.2km/h 82% 0.00in /  0mm 0 W/m2
06:49 21.1 °F /  -6.1 °C 16.5 °F /  -8.6 °C 30.04in /  1017.2hPa WNW 7.7mph /  12.4km/h 20mph /  32.2km/h 82% 0.00in /  0mm 0 W/m2
06:54 20.9 °F /  -6.2 °C 16.3 °F /  -8.7 °C 30.05in /  1017.5hPa NW 6mph /  9.7km/h 20mph /  32.2km/h 82% 0.00in /  0mm 0 W/m2
06:59 20.9 °F /  -6.2 °C 16.3 °F /  -8.7 °C 30.05in /  1017.5hPa NW 2.2mph /  3.5km/h 20mph /  32.2km/h 82% 0.00in /  0mm 0 W/m2
07:04 20.9 °F /  -6.2 °C 16.5 °F /  -8.6 °C 30.05in /  1017.5hPa NW 3.2mph /  5.1km/h 20mph /  32.2km/h 82.8% 0.00in /  0mm 0 W/m2
07:09 20.8 °F /  -6.2 °C 16.5 °F /  -8.6 °C 30.05in /  1017.5hPa NW 2.9mph /  4.7km/h 13mph /  20.9km/h 83% 0.00in /  0mm 5 W/m2
07:14 20.8 °F /  -6.2 °C 16.5 °F /  -8.6 °C 30.06in /  1017.8hPa NW 5.4mph /  8.7km/h 13mph /  20.9km/h 83% 0.00in /  0mm 18 W/m2
07:19 20.8 °F /  -6.2 °C 16.5 °F /  -8.6 °C 30.06in /  1017.8hPa NW 3.4mph /  5.5km/h 13mph /  20.9km/h 83% 0.00in /  0mm 25 W/m2
07:24 20.8 °F /  -6.2 °C 16.5 °F /  -8.6 °C 30.07in /  1018.2hPa NW 5.4mph /  8.7km/h 13mph /  20.9km/h 83% 0.00in /  0mm 26 W/m2
07:29 20.8 °F /  -6.2 °C 16.3 °F /  -8.7 °C 30.07in /  1018.2hPa NW 4.4mph /  7.1km/h 13mph /  20.9km/h 82.5% 0.00in /  0mm 26 W/m2
07:34 20.8 °F /  -6.2 °C 16.2 °F /  -8.8 °C 30.07in /  1018.2hPa NW 3.2mph /  5.1km/h 13mph /  20.9km/h 82% 0.00in /  0mm 32 W/m2
07:39 20.8 °F /  -6.2 °C 16.4 °F /  -8.7 °C 30.08in /  1018.5hPa NW 3.8mph /  6.1km/h 12mph /  19.3km/h 82.8% 0.00in /  0mm 40 W/m2
07:44 20.8 °F /  -6.2 °C 16.5 °F /  -8.6 °C 30.08in /  1018.5hPa NW 3.6mph /  5.8km/h 12mph /  19.3km/h 83% 0.00in /  0mm 56 W/m2
07:49 20.8 °F /  -6.2 °C 16.5 °F /  -8.6 °C 30.08in /  1018.5hPa NW 5mph /  8km/h 12mph /  19.3km/h 82.9% 0.00in /  0mm 62 W/m2
07:54 20.9 °F /  -6.2 °C 16.3 °F /  -8.7 °C 30.08in /  1018.5hPa NW 6.1mph /  9.8km/h 12mph /  19.3km/h 82% 0.00in /  0mm 60 W/m2
07:59 20.9 °F /  -6.2 °C 16.2 °F /  -8.8 °C 30.09in /  1018.8hPa NW 4.8mph /  7.7km/h 16mph /  25.7km/h 81.8% 0.00in /  0mm 51 W/m2
08:00 20.9 °F /  -6.2 °C 16 °F /  -8.9 °C 30.09in /  1018.8hPa Calm   16mph /  25.7km/h 81% 0.00in /  0mm 49 W/m2
08:09 20.8 °F /  -6.2 °C 15.7 °F /  -9.1 °C 30.10in /  1019.2hPa NW 5.2mph /  8.4km/h 11mph /  17.7km/h 80.3% 0.00in /  0mm 37 W/m2
08:14 20.7 °F /  -6.3 °C 15.5 °F /  -9.2 °C 30.10in /  1019.2hPa NW 5.2mph /  8.4km/h 16mph /  25.7km/h 80.2% 0.00in /  0mm 62 W/m2
08:19 20.6 °F /  -6.3 °C 15.7 °F /  -9.1 °C 30.10in /  1019.2hPa NW 4.8mph /  7.7km/h 16mph /  25.7km/h 80.9% 0.00in /  0mm 69 W/m2
08:24 20.7 °F /  -6.3 °C 15.8 °F /  -9 °C 30.11in /  1019.5hPa NW 5.3mph /  8.5km/h 16mph /  25.7km/h 81% 0.00in /  0mm 169 W/m2
08:29 20.8 °F /  -6.2 °C 15.9 °F /  -8.9 °C 30.11in /  1019.5hPa NW 5.4mph /  8.7km/h 16mph /  25.7km/h 81% 0.00in /  0mm 186 W/m2
08:34 21.2 °F /  -6 °C 16.4 °F /  -8.7 °C 30.11in /  1019.5hPa NW 7.3mph /  11.7km/h 16mph /  25.7km/h 81.4% 0.00in /  0mm 287 W/m2
08:39 21.9 °F /  -5.6 °C 17 °F /  -8.3 °C 30.11in /  1019.5hPa WNW 6.9mph /  11.1km/h 16mph /  25.7km/h 81.2% 0.00in /  0mm 294 W/m2
08:44 22.4 °F /  -5.3 °C 17.3 °F /  -8.2 °C 30.11in /  1019.5hPa NW 5mph /  8km/h 16mph /  25.7km/h 80.3% 0.00in /  0mm 308 W/m2
08:49 22.8 °F /  -5.1 °C 17.5 °F /  -8.1 °C 30.12in /  1019.9hPa NW 7.2mph /  11.6km/h 16mph /  25.7km/h 79.7% 0.00in /  0mm 325 W/m2
08:54 23.1 °F /  -4.9 °C 17.4 °F /  -8.1 °C 30.12in /  1019.9hPa WNW 7.4mph /  11.9km/h 16mph /  25.7km/h 78.5% 0.00in /  0mm 329 W/m2
08:59 23.2 °F /  -4.9 °C 17.4 °F /  -8.1 °C 30.13in /  1020.2hPa WNW 6.6mph /  10.6km/h 16mph /  25.7km/h 78% 0.00in /  0mm 258 W/m2
09:04 23.3 °F /  -4.8 °C 17.2 °F /  -8.2 °C 30.13in /  1020.2hPa NW 7mph /  11.3km/h 19mph /  30.6km/h 77.3% 0.00in /  0mm 327 W/m2
09:09 23.1 °F /  -4.9 °C 16.9 °F /  -8.4 °C 30.13in /  1020.2hPa NW 8.2mph /  13.2km/h 19mph /  30.6km/h 76.7% 0.00in /  0mm 346 W/m2
09:14 23 °F /  -5 °C 17.2 °F /  -8.2 °C 30.14in /  1020.5hPa NW 9.4mph /  15.1km/h 23mph /  37km/h 77.9% 0.00in /  0mm 360 W/m2
09:19 23.2 °F /  -4.9 °C 17 °F /  -8.3 °C 30.14in /  1020.5hPa NW 7.3mph /  11.7km/h 23mph /  37km/h 77% 0.00in /  0mm 390 W/m2
09:24 23.6 °F /  -4.7 °C 17.7 °F /  -7.9 °C 30.14in /  1020.5hPa NW 8.1mph /  13km/h 23mph /  37km/h 77.5% 0.00in /  0mm 388 W/m2
09:29 24.2 °F /  -4.3 °C 17.9 °F /  -7.8 °C 30.14in /  1020.5hPa NW 9.4mph /  15.1km/h 23mph /  37km/h 76.7% 0.00in /  0mm 424 W/m2
09:34 24.4 °F /  -4.2 °C 17.6 °F /  -8 °C 30.15in /  1020.9hPa NW 9.9mph /  15.9km/h 23mph /  37km/h 75% 0.00in /  0mm 424 W/m2
09:39 24.5 °F /  -4.2 °C 17.6 °F /  -8 °C 30.14in /  1020.5hPa NW 8.7mph /  14km/h 19mph /  30.6km/h 74.8% 0.00in /  0mm 427 W/m2
09:44 24.7 °F /  -4.1 °C 17.8 °F /  -7.9 °C 30.14in /  1020.5hPa NW 6.7mph /  10.8km/h 19mph /  30.6km/h 74.6% 0.00in /  0mm 420 W/m2
09:49 25 °F /  -3.9 °C 17.9 °F /  -7.8 °C 30.15in /  1020.9hPa NW 6.5mph /  10.5km/h 19mph /  30.6km/h 74.1% 0.00in /  0mm 418 W/m2
09:54 25.2 °F /  -3.8 °C 18 °F /  -7.8 °C 30.15in /  1020.9hPa NW 6.1mph /  9.8km/h 19mph /  30.6km/h 73.8% 0.00in /  0mm 436 W/m2
09:59 25.3 °F /  -3.7 °C 17.9 °F /  -7.8 °C 30.16in /  1021.2hPa NW 4.1mph /  6.6km/h 19mph /  30.6km/h 73.1% 0.00in /  0mm 436 W/m2
10:04 25.5 °F /  -3.6 °C 18 °F /  -7.8 °C 30.16in /  1021.2hPa NW 5.4mph /  8.7km/h 19mph /  30.6km/h 73.1% 0.00in /  0mm 436 W/m2
10:09 25.5 °F /  -3.6 °C 17.5 °F /  -8.1 °C 30.16in /  1021.2hPa NW 7.2mph /  11.6km/h 15mph /  24.1km/h 71.2% 0.00in /  0mm 497 W/m2
10:14 25.3 °F /  -3.7 °C 17.2 °F /  -8.2 °C 30.16in /  1021.2hPa NNW 6.3mph /  10.1km/h 15mph /  24.1km/h 70.9% 0.00in /  0mm 510 W/m2
10:19 25.2 °F /  -3.8 °C 17.2 °F /  -8.2 °C 30.16in /  1021.2hPa NW 3.2mph /  5.1km/h 15mph /  24.1km/h 71.2% 0.00in /  0mm 139 W/m2
10:24 24.9 °F /  -3.9 °C 17 °F /  -8.3 °C 30.16in /  1021.2hPa NW 5.1mph /  8.2km/h 15mph /  24.1km/h 71.5% 0.00in /  0mm 192 W/m2
10:29 24.5 °F /  -4.2 °C 16.6 °F /  -8.6 °C 30.16in /  1021.2hPa WNW 6.7mph /  10.8km/h 15mph /  24.1km/h 71.4% 0.00in /  0mm 443 W/m2
10:34 24.4 °F /  -4.2 °C 16.4 °F /  -8.7 °C 30.16in /  1021.2hPa NW 6.9mph /  11.1km/h 16mph /  25.7km/h 71% 0.00in /  0mm 512 W/m2
10:39 24.7 °F /  -4.1 °C 16.4 °F /  -8.7 °C 30.17in /  1021.6hPa WNW 8.6mph /  13.8km/h 16mph /  25.7km/h 70.4% 0.00in /  0mm 520 W/m2
10:44 25.1 °F /  -3.8 °C 16.8 °F /  -8.4 °C 30.17in /  1021.6hPa NW 7.6mph /  12.2km/h 18mph /  29km/h 70.2% 0.00in /  0mm 515 W/m2
10:49 25.4 °F /  -3.7 °C 16.3 °F /  -8.7 °C 30.17in /  1021.6hPa NW 8.9mph /  14.3km/h 18mph /  29km/h 68% 0.00in /  0mm 519 W/m2
10:54 25.5 °F /  -3.6 °C 16.1 °F /  -8.8 °C 30.17in /  1021.6hPa WNW 8.6mph /  13.8km/h 18mph /  29km/h 67% 0.00in /  0mm 526 W/m2
10:59 25.7 °F /  -3.5 °C 16 °F /  -8.9 °C 30.17in /  1021.6hPa NW 7.6mph /  12.2km/h 18mph /  29km/h 66.2% 0.00in /  0mm 533 W/m2
11:04 26.2 °F /  -3.2 °C 17 °F /  -8.3 °C 30.17in /  1021.6hPa NW 5.1mph /  8.2km/h 18mph /  29km/h 67.8% 0.00in /  0mm 533 W/m2
11:09 26.6 °F /  -3 °C 16.4 °F /  -8.7 °C 30.16in /  1021.2hPa NW 8mph /  12.9km/h 18mph /  29km/h 65.2% 0.00in /  0mm 534 W/m2
11:14 26.8 °F /  -2.9 °C 17.2 °F /  -8.2 °C 30.17in /  1021.6hPa NW 6.6mph /  10.6km/h 18mph /  29km/h 66.5% 0.00in /  0mm 512 W/m2
11:19 27 °F /  -2.8 °C 16.8 °F /  -8.4 °C 30.17in /  1021.6hPa NW 6.5mph /  10.5km/h 18mph /  29km/h 64.9% 0.00in /  0mm 404 W/m2
11:24 26.9 °F /  -2.8 °C 16.6 °F /  -8.6 °C 30.17in /  1021.6hPa NW 7.3mph /  11.7km/h 18mph /  29km/h 64.7% 0.00in /  0mm 422 W/m2
11:29 26.8 °F /  -2.9 °C 16.7 °F /  -8.5 °C 30.16in /  1021.2hPa NW 2.5mph /  4km/h 18mph /  29km/h 65.3% 0.00in /  0mm 193 W/m2
11:34 27 °F /  -2.8 °C 17.6 °F /  -8 °C 30.17in /  1021.6hPa NW 9.2mph /  14.8km/h 19mph /  30.6km/h 67.3% 0.00in /  0mm 241 W/m2
11:39 26.7 °F /  -2.9 °C 15.9 °F /  -8.9 °C 30.17in /  1021.6hPa NW 5.1mph /  8.2km/h 19mph /  30.6km/h 63.1% 0.00in /  0mm 471 W/m2
11:44 26.6 °F /  -3 °C 16.2 °F /  -8.8 °C 30.17in /  1021.6hPa NW 7.3mph /  11.7km/h 19mph /  30.6km/h 64.2% 0.00in /  0mm 338 W/m2
11:49 26.7 °F /  -2.9 °C 16.1 °F /  -8.8 °C 30.17in /  1021.6hPa WNW 7.5mph /  12.1km/h 19mph /  30.6km/h 64% 0.00in /  0mm 160 W/m2
11:54 26.7 °F /  -2.9 °C 16.4 °F /  -8.7 °C 30.17in /  1021.6hPa NW 5.1mph /  8.2km/h 19mph /  30.6km/h 64.8% 0.00in /  0mm 128 W/m2
11:59 26.8 °F /  -2.9 °C 16.8 °F /  -8.4 °C 30.17in /  1021.6hPa NW 7.5mph /  12.1km/h 19mph /  30.6km/h 65.5% 0.00in /  0mm 206 W/m2
12:00 26.8 °F /  -2.9 °C 16.3 °F /  -8.7 °C 30.17in /  1021.6hPa NW 9mph /  14.5km/h 19mph /  30.6km/h 64% 0.00in /  0mm 149 W/m2
12:09 26.6 °F /  -3 °C 15.9 °F /  -8.9 °C 30.17in /  1021.6hPa NW 8.7mph /  14km/h 17mph /  27.4km/h 63.6% 0.00in /  0mm 197 W/m2
12:14 26.5 °F /  -3.1 °C 15.5 °F /  -9.2 °C 30.18in /  1021.9hPa NW 7.7mph /  12.4km/h 17mph /  27.4km/h 62.7% 0.00in /  0mm 288 W/m2
12:19 26.3 °F /  -3.2 °C 15.1 °F /  -9.4 °C 30.17in /  1021.6hPa NW 9.1mph /  14.6km/h 19mph /  30.6km/h 62.1% 0.00in /  0mm 288 W/m2
12:24 26.2 °F /  -3.2 °C 15.4 °F /  -9.2 °C 30.18in /  1021.9hPa NW 8.8mph /  14.2km/h 19mph /  30.6km/h 62.9% 0.00in /  0mm 190 W/m2
12:29 26.3 °F /  -3.2 °C 14.9 °F /  -9.5 °C 30.19in /  1022.2hPa NW 8.8mph /  14.2km/h 19mph /  30.6km/h 61.5% 0.00in /  0mm 251 W/m2
12:34 26.3 °F /  -3.2 °C 14.6 °F /  -9.7 °C 30.19in /  1022.2hPa NW 9mph /  14.5km/h 19mph /  30.6km/h 60.8% 0.00in /  0mm 570 W/m2
12:39 26.5 °F /  -3.1 °C 15.1 °F /  -9.4 °C 30.19in /  1022.2hPa NW 4.2mph /  6.8km/h 19mph /  30.6km/h 61.6% 0.00in /  0mm 457 W/m2
12:44 26.7 °F /  -2.9 °C 14.9 °F /  -9.5 °C 30.20in /  1022.6hPa NW 9.7mph /  15.6km/h 19mph /  30.6km/h 60.5% 0.00in /  0mm 276 W/m2
12:49 26.7 °F /  -2.9 °C 13.9 °F /  -10.1 °C 30.20in /  1022.6hPa NW 13mph /  20.9km/h 23mph /  37km/h 57.9% 0.00in /  0mm 176 W/m2
12:54 26.4 °F /  -3.1 °C 13.3 °F /  -10.4 °C 30.20in /  1022.6hPa NW 10.3mph /  16.6km/h 23mph /  37km/h 57.2% 0.00in /  0mm 571 W/m2
12:59 26.4 °F /  -3.1 °C 14 °F /  -10 °C 30.20in /  1022.6hPa NW 8.8mph /  14.2km/h 23mph /  37km/h 58.9% 0.00in /  0mm 564 W/m2
13:04 26.4 °F /  -3.1 °C 13.4 °F /  -10.3 °C 30.21in /  1022.9hPa WNW 12.8mph /  20.6km/h 24mph /  38.6km/h 57.5% 0.00in /  0mm 506 W/m2
13:09 26.1 °F /  -3.3 °C 12.9 °F /  -10.6 °C 30.22in /  1023.2hPa WNW 8.5mph /  13.7km/h 24mph /  38.6km/h 56.9% 0.00in /  0mm 229 W/m2
13:14 26.1 °F /  -3.3 °C 13.2 °F /  -10.4 °C 30.22in /  1023.2hPa WNW 11.6mph /  18.7km/h 24mph /  38.6km/h 57.7% 0.00in /  0mm 332 W/m2
13:19 26.1 °F /  -3.3 °C 13.1 °F /  -10.5 °C 30.22in /  1023.2hPa WNW 12.5mph /  20.1km/h 24mph /  38.6km/h 57.3% 0.00in /  0mm 490 W/m2
13:24 26.1 °F /  -3.3 °C 12.9 °F /  -10.6 °C 30.21in /  1022.9hPa WNW 12mph /  19.3km/h 24mph /  38.6km/h 57% 0.00in /  0mm 555 W/m2
13:29 26 °F /  -3.3 °C 12.7 °F /  -10.7 °C 30.22in /  1023.2hPa WNW 11.6mph /  18.7km/h 24mph /  38.6km/h 56.7% 0.00in /  0mm 554 W/m2
13:34 26 °F /  -3.3 °C 13 °F /  -10.6 °C 30.22in /  1023.2hPa NW 7.5mph /  12.1km/h 24mph /  38.6km/h 57.2% 0.00in /  0mm 162 W/m2
13:39 26.2 °F /  -3.2 °C 13.2 °F /  -10.4 °C 30.22in /  1023.2hPa WNW 9.1mph /  14.6km/h 18mph /  29km/h 57.3% 0.00in /  0mm 343 W/m2
13:44 26.2 °F /  -3.2 °C 12.5 °F /  -10.8 °C 30.22in /  1023.2hPa NW 9.3mph /  15km/h 20mph /  32.2km/h 55.6% 0.00in /  0mm 97 W/m2
13:49 26.2 °F /  -3.2 °C 12.6 °F /  -10.8 °C 30.22in /  1023.2hPa NW 10.5mph /  16.9km/h 20mph /  32.2km/h 55.8% 0.00in /  0mm 163 W/m2
13:54 26.2 °F /  -3.2 °C 11.8 °F /  -11.2 °C 30.22in /  1023.2hPa NW 10.3mph /  16.6km/h 26mph /  41.8km/h 54% 0.00in /  0mm 376 W/m2
13:59 26.2 °F /  -3.2 °C 10.8 °F /  -11.8 °C 30.23in /  1023.6hPa NW 13.5mph /  21.7km/h 26mph /  41.8km/h 51.5% 0.00in /  0mm 376 W/m2
14:04 26.3 °F /  -3.2 °C 10.3 °F /  -12.1 °C 30.23in /  1023.6hPa NW 11.1mph /  17.9km/h 26mph /  41.8km/h 50.4% 0.00in /  0mm 348 W/m2
14:09 26.2 °F /  -3.2 °C 10 °F /  -12.2 °C 30.23in /  1023.6hPa NW 10.7mph /  17.2km/h 25mph /  40.2km/h 49.7% 0.00in /  0mm 294 W/m2
14:14 26.3 °F /  -3.2 °C 10.5 °F /  -11.9 °C 30.23in /  1023.6hPa NW 6.6mph /  10.6km/h 25mph /  40.2km/h 50.7% 0.00in /  0mm 287 W/m2
14:19 26.6 °F /  -3 °C 11.1 °F /  -11.6 °C 30.24in /  1023.9hPa NW 6.9mph /  11.1km/h 25mph /  40.2km/h 51.5% 0.00in /  0mm 167 W/m2
14:24 26.9 °F /  -2.8 °C 11.1 °F /  -11.6 °C 30.24in /  1023.9hPa NW 8mph /  12.9km/h 25mph /  40.2km/h 50.8% 0.00in /  0mm 167 W/m2
14:29 27 °F /  -2.8 °C 11.7 °F /  -11.3 °C 30.25in /  1024.3hPa WNW 7.7mph /  12.4km/h 25mph /  40.2km/h 52% 0.00in /  0mm 102 W/m2
14:34 27 °F /  -2.8 °C 12 °F /  -11.1 °C 30.25in /  1024.3hPa WNW 5.7mph /  9.2km/h 25mph /  40.2km/h 52.5% 0.00in /  0mm 167 W/m2
14:39 27 °F /  -2.8 °C 11.3 °F /  -11.5 °C 30.25in /  1024.3hPa WNW 8.8mph /  14.2km/h 18mph /  29km/h 51.1% 0.00in /  0mm 176 W/m2
14:44 26.8 °F /  -2.9 °C 10.7 °F /  -11.8 °C 30.25in /  1024.3hPa WNW 7.3mph /  11.7km/h 18mph /  29km/h 50.1% 0.00in /  0mm 176 W/m2
14:49 26.9 °F /  -2.8 °C 11.2 °F /  -11.6 °C 30.25in /  1024.3hPa NW 6.6mph /  10.6km/h 18mph /  29km/h 50.9% 0.00in /  0mm 415 W/m2
14:54 27.1 °F /  -2.7 °C 11.1 °F /  -11.6 °C 30.26in /  1024.6hPa NW 6.3mph /  10.1km/h 18mph /  29km/h 50.4% 0.00in /  0mm 413 W/m2
14:59 27 °F /  -2.8 °C 9.5 °F /  -12.5 °C 30.26in /  1024.6hPa NW 10.9mph /  17.5km/h 20mph /  32.2km/h 47.1% 0.00in /  0mm 246 W/m2
15:04 26.6 °F /  -3 °C 8.3 °F /  -13.2 °C 30.26in /  1024.6hPa NW 10.5mph /  16.9km/h 20mph /  32.2km/h 45.4% 0.00in /  0mm 63 W/m2
15:09 26.2 °F /  -3.2 °C 8.1 °F /  -13.3 °C 30.27in /  1024.9hPa NNW 7.9mph /  12.7km/h 20mph /  32.2km/h 45.5% 0.00in /  0mm 33 W/m2
15:14 26 °F /  -3.3 °C 8.7 °F /  -12.9 °C 30.27in /  1024.9hPa NW 7.5mph /  12.1km/h 20mph /  32.2km/h 47.4% 0.00in /  0mm 33 W/m2
15:19 26 °F /  -3.3 °C 9.1 °F /  -12.7 °C 30.27in /  1024.9hPa NW 6.2mph /  10km/h 20mph /  32.2km/h 48.2% 0.00in /  0mm 32 W/m2
15:24 25.9 °F /  -3.4 °C 8.8 °F /  -12.9 °C 30.28in /  1025.3hPa NW 9.3mph /  15km/h 20mph /  32.2km/h 47.6% 0.00in /  0mm 30 W/m2
15:29 25.8 °F /  -3.4 °C 8.3 °F /  -13.2 °C 30.28in /  1025.3hPa NW 10.8mph /  17.4km/h 22mph /  35.4km/h 46.9% 0.00in /  0mm 28 W/m2
15:34 25.5 °F /  -3.6 °C 7.3 °F /  -13.7 °C 30.28in /  1025.3hPa NW 6.4mph /  10.3km/h 22mph /  35.4km/h 45.3% 0.00in /  0mm 28 W/m2
15:39 25.3 °F /  -3.7 °C 7.8 °F /  -13.4 °C 30.29in /  1025.6hPa NW 8mph /  12.9km/h 17mph /  27.4km/h 46.9% 0.00in /  0mm 26 W/m2
15:44 25.1 °F /  -3.8 °C 7.2 °F /  -13.8 °C 30.29in /  1025.6hPa NW 9.5mph /  15.3km/h 21mph /  33.8km/h 45.9% 0.00in /  0mm 26 W/m2
15:49 25 °F /  -3.9 °C 6.6 °F /  -14.1 °C 30.30in /  1026hPa NW 12.3mph /  19.8km/h 21mph /  33.8km/h 44.8% 0.00in /  0mm 25 W/m2
15:54 24.8 °F /  -4 °C 6.6 °F /  -14.1 °C 30.30in /  1026hPa NW 6.9mph /  11.1km/h 21mph /  33.8km/h 45.1% 0.00in /  0mm 25 W/m2
15:59 24.8 °F /  -4 °C 7 °F /  -13.9 °C 30.30in /  1026hPa NW 8.5mph /  13.7km/h 21mph /  33.8km/h 46% 0.00in /  0mm 23 W/m2
16:09 24.6 °F /  -4.1 °C 7 °F /  -13.9 °C 30.31in /  1026.3hPa NW 8.6mph /  13.8km/h 18mph /  29km/h 46.6% 0.00in /  0mm 21 W/m2
16:14 24.4 °F /  -4.2 °C 7.3 °F /  -13.7 °C 30.31in /  1026.3hPa NW 7.8mph /  12.6km/h 19mph /  30.6km/h 47.4% 0.00in /  0mm 21 W/m2
16:19 24.2 °F /  -4.3 °C 7.1 °F /  -13.8 °C 30.31in /  1026.3hPa NW 8.2mph /  13.2km/h 20mph /  32.2km/h 47.5% 0.00in /  0mm 19 W/m2
16:24 24 °F /  -4.4 °C 7 °F /  -13.9 °C 30.31in /  1026.3hPa NW 9.7mph /  15.6km/h 20mph /  32.2km/h 47.6% 0.00in /  0mm 19 W/m2
16:29 23.8 °F /  -4.6 °C 7.4 °F /  -13.7 °C 30.31in /  1026.3hPa NNW 7.2mph /  11.6km/h 20mph /  32.2km/h 48.8% 0.00in /  0mm 18 W/m2
16:34 23.7 °F /  -4.6 °C 7.4 °F /  -13.7 °C 30.32in /  1026.6hPa NW 7mph /  11.3km/h 20mph /  32.2km/h 49.2% 0.00in /  0mm 18 W/m2
16:39 23.6 °F /  -4.7 °C 7.8 °F /  -13.4 °C 30.32in /  1026.6hPa NW 8.2mph /  13.2km/h 16mph /  25.7km/h 50.2% 0.00in /  0mm 16 W/m2
16:44 23.5 °F /  -4.7 °C 7.6 °F /  -13.6 °C 30.32in /  1026.6hPa NW 9mph /  14.5km/h 16mph /  25.7km/h 50.1% 0.00in /  0mm 14 W/m2
16:49 23.4 °F /  -4.8 °C 7.3 °F /  -13.7 °C 30.32in /  1026.6hPa NW 11.1mph /  17.9km/h 21mph /  33.8km/h 49.5% 0.00in /  0mm 12 W/m2
16:54 23.2 °F /  -4.9 °C 7.2 °F /  -13.8 °C 30.33in /  1027hPa NW 8.9mph /  14.3km/h 21mph /  33.8km/h 49.8% 0.00in /  0mm 11 W/m2
16:59 23 °F /  -5 °C 7.5 °F /  -13.6 °C 30.34in /  1027.3hPa WNW 7.1mph /  11.4km/h 21mph /  33.8km/h 50.8% 0.00in /  0mm 9 W/m2
17:04 22.9 °F /  -5.1 °C 7.5 °F /  -13.6 °C 30.35in /  1027.7hPa NW 9.9mph /  15.9km/h 21mph /  33.8km/h 51% 0.00in /  0mm 7 W/m2
17:09 22.7 °F /  -5.2 °C 7.5 °F /  -13.6 °C 30.35in /  1027.7hPa NW 5.3mph /  8.5km/h 20mph /  32.2km/h 51.4% 0.00in /  0mm 5 W/m2
17:14 22.5 °F /  -5.3 °C 7.6 °F /  -13.6 °C 30.35in /  1027.7hPa NW 6.4mph /  10.3km/h 20mph /  32.2km/h 52% 0.00in /  0mm 0 W/m2
17:19 22.4 °F /  -5.3 °C 7.8 °F /  -13.4 °C 30.36in /  1028hPa NW 4.9mph /  7.9km/h 20mph /  32.2km/h 52.8% 0.00in /  0mm 0 W/m2
17:24 22.2 °F /  -5.4 °C 8.1 °F /  -13.3 °C 30.36in /  1028hPa NW 2.4mph /  3.9km/h 20mph /  32.2km/h 53.9% 0.00in /  0mm 0 W/m2
17:29 22.1 °F /  -5.5 °C 8.2 °F /  -13.2 °C 30.37in /  1028.3hPa NW 7mph /  11.3km/h 20mph /  32.2km/h 54.5% 0.00in /  0mm 0 W/m2
17:34 22 °F /  -5.6 °C 8.1 °F /  -13.3 °C 30.37in /  1028.3hPa NW 6.9mph /  11.1km/h 20mph /  32.2km/h 54.4% 0.00in /  0mm 0 W/m2
17:39 21.9 °F /  -5.6 °C 8.3 °F /  -13.2 °C 30.36in /  1028hPa NW 5.9mph /  9.5km/h 16mph /  25.7km/h 55.2% 0.00in /  0mm 0 W/m2
17:44 21.8 °F /  -5.7 °C 8.5 °F /  -13.1 °C 30.37in /  1028.3hPa NW 6.5mph /  10.5km/h 16mph /  25.7km/h 56% 0.00in /  0mm 0 W/m2
17:49 21.7 °F /  -5.7 °C 8.6 °F /  -13 °C 30.37in /  1028.3hPa NW 4.4mph /  7.1km/h 16mph /  25.7km/h 56.5% 0.00in /  0mm 0 W/m2
17:54 21.6 °F /  -5.8 °C 8.7 °F /  -12.9 °C 30.39in /  1029hPa NW 3.9mph /  6.3km/h 16mph /  25.7km/h 57% 0.00in /  0mm 0 W/m2
17:59 21.5 °F /  -5.8 °C 9 °F /  -12.8 °C 30.39in /  1029hPa NW 4.3mph /  6.9km/h 16mph /  25.7km/h 58% 0.00in /  0mm 0 W/m2
18:04 21.4 °F /  -5.9 °C 8.9 °F /  -12.8 °C 30.39in /  1029hPa NW 4.9mph /  7.9km/h 16mph /  25.7km/h 58% 0.00in /  0mm 0 W/m2
18:09 21.3 °F /  -5.9 °C 9.1 °F /  -12.7 °C 30.39in /  1029hPa NW 5.6mph /  9km/h 14mph /  22.5km/h 58.7% 0.00in /  0mm 0 W/m2
18:14 21.2 °F /  -6 °C 9 °F /  -12.8 °C 30.40in /  1029.3hPa NW 4.3mph /  6.9km/h 14mph /  22.5km/h 58.7% 0.00in /  0mm 0 W/m2
18:19 21.2 °F /  -6 °C 9.1 °F /  -12.7 °C 30.40in /  1029.3hPa NW 4.8mph /  7.7km/h 14mph /  22.5km/h 59% 0.00in /  0mm 0 W/m2
18:24 21.1 °F /  -6.1 °C 9 °F /  -12.8 °C 30.40in /  1029.3hPa NW 4.6mph /  7.4km/h 14mph /  22.5km/h 59% 0.00in /  0mm 0 W/m2
18:29 21 °F /  -6.1 °C 9.2 °F /  -12.7 °C 30.41in /  1029.7hPa NNW 2.6mph /  4.2km/h 14mph /  22.5km/h 59.8% 0.00in /  0mm 0 W/m2
18:34 20.9 °F /  -6.2 °C 9.4 °F /  -12.6 °C 30.41in /  1029.7hPa NNW 0.5mph /  0.8km/h 14mph /  22.5km/h 60.5% 0.00in /  0mm 0 W/m2
18:39 20.8 °F /  -6.2 °C 9.2 °F /  -12.7 °C 30.42in /  1030hPa NW 2.6mph /  4.2km/h 9mph /  14.5km/h 60.2% 0.00in /  0mm 0 W/m2
18:44 20.7 °F /  -6.3 °C 9.1 °F /  -12.7 °C 30.42in /  1030hPa NW 4.2mph /  6.8km/h 11mph /  17.7km/h 60.2% 0.00in /  0mm 0 W/m2
18:49 20.7 °F /  -6.3 °C 9.9 °F /  -12.3 °C 30.42in /  1030hPa NW 5.8mph /  9.3km/h 14mph /  22.5km/h 62.2% 0.00in /  0mm 0 W/m2
18:54 20.8 °F /  -6.2 °C 10.2 °F /  -12.1 °C 30.43in /  1030.4hPa NNW 1.3mph /  2.1km/h 14mph /  22.5km/h 63% 0.00in /  0mm 0 W/m2
18:59 20.9 °F /  -6.2 °C 11.3 °F /  -11.5 °C 30.43in /  1030.4hPa North 0.8mph /  1.3km/h 14mph /  22.5km/h 65.8% 0.00in /  0mm 0 W/m2
19:04 21 °F /  -6.1 °C 11.4 °F /  -11.4 °C 30.44in /  1030.7hPa NNW 1.1mph /  1.8km/h 14mph /  22.5km/h 66.1% 0.00in /  0mm 0 W/m2
19:09 21 °F /  -6.1 °C 11.7 °F /  -11.3 °C 30.44in /  1030.7hPa Calm   6mph /  9.7km/h 66.8% 0.00in /  0mm 0 W/m2
19:14 21.1 °F /  -6.1 °C 12 °F /  -11.1 °C 30.44in /  1030.7hPa NNW 0.2mph /  0.3km/h 6mph /  9.7km/h 67.5% 0.00in /  0mm 0 W/m2
19:19 21 °F /  -6.1 °C 11.4 °F /  -11.4 °C 30.45in /  1031hPa NW 1.8mph /  2.9km/h 9mph /  14.5km/h 65.9% 0.00in /  0mm 0 W/m2
19:24 21 °F /  -6.1 °C 10.8 °F /  -11.8 °C 30.45in /  1031hPa NW 5.3mph /  8.5km/h 10mph /  16.1km/h 64.4% 0.00in /  0mm 0 W/m2
19:29 20.8 °F /  -6.2 °C 10.2 °F /  -12.1 °C 30.45in /  1031hPa NW 4.7mph /  7.6km/h 10mph /  16.1km/h 63% 0.00in /  0mm 0 W/m2
19:34 20.7 °F /  -6.3 °C 9.8 °F /  -12.3 °C 30.45in /  1031hPa WNW 2.2mph /  3.5km/h 10mph /  16.1km/h 62.1% 0.00in /  0mm 0 W/m2
19:39 20.7 °F /  -6.3 °C 10.1 °F /  -12.2 °C 30.45in /  1031hPa NW 3.1mph /  5km/h 9mph /  14.5km/h 63% 0.00in /  0mm 0 W/m2
19:44 20.7 °F /  -6.3 °C 9.9 °F /  -12.3 °C 30.46in /  1031.4hPa NW 4.6mph /  7.4km/h 9mph /  14.5km/h 62.5% 0.00in /  0mm 0 W/m2
19:49 20.6 °F /  -6.3 °C 9.9 °F /  -12.3 °C 30.46in /  1031.4hPa NW 3.2mph /  5.1km/h 9mph /  14.5km/h 62.5% 0.00in /  0mm 0 W/m2
19:54 20.6 °F /  -6.3 °C 9.7 °F /  -12.4 °C 30.46in /  1031.4hPa WNW 2.8mph /  4.5km/h 9mph /  14.5km/h 62.2% 0.00in /  0mm 0 W/m2
19:59 20.5 °F /  -6.4 °C 9.8 °F /  -12.3 °C 30.46in /  1031.4hPa WNW 2.6mph /  4.2km/h 9mph /  14.5km/h 62.7% 0.00in /  0mm 0 W/m2
20:00 20.4 °F /  -6.4 °C 9.8 °F /  -12.3 °C 30.46in /  1031.4hPa WNW 2mph /  3.2km/h 9mph /  14.5km/h 63% 0.00in /  0mm 0 W/m2
20:09 20.1 °F /  -6.6 °C 9.5 °F /  -12.5 °C 30.46in /  1031.4hPa WNW 0.6mph /  1km/h 4mph /  6.4km/h 63% 0.00in /  0mm 0 W/m2
20:14 19.9 °F /  -6.7 °C 9.5 °F /  -12.5 °C 30.47in /  1031.7hPa WNW 0.9mph /  1.4km/h 6mph /  9.7km/h 63.3% 0.00in /  0mm 0 W/m2
20:19 19.7 °F /  -6.8 °C 9.5 °F /  -12.5 °C 30.47in /  1031.7hPa WNW 0.9mph /  1.4km/h 6mph /  9.7km/h 64% 0.00in /  0mm 0 W/m2
20:24 19.5 °F /  -6.9 °C 9.4 °F /  -12.6 °C 30.47in /  1031.7hPa Calm   6mph /  9.7km/h 64% 0.00in /  0mm 0 W/m2
20:29 19.4 °F /  -7 °C 9.5 °F /  -12.5 °C 30.47in /  1031.7hPa NW 1.6mph /  2.6km/h 7mph /  11.3km/h 64.8% 0.00in /  0mm 0 W/m2
20:34 19.3 °F /  -7.1 °C 9.1 °F /  -12.7 °C 30.47in /  1031.7hPa NW 4.1mph /  6.6km/h 9mph /  14.5km/h 64% 0.00in /  0mm 0 W/m2
20:39 19.1 °F /  -7.2 °C 9 °F /  -12.8 °C 30.47in /  1031.7hPa WNW 1.5mph /  2.4km/h 9mph /  14.5km/h 64% 0.00in /  0mm 0 W/m2
20:44 19.1 °F /  -7.2 °C 8.9 °F /  -12.8 °C 30.48in /  1032.1hPa NW 1mph /  1.6km/h 9mph /  14.5km/h 64% 0.00in /  0mm 0 W/m2
20:49 19 °F /  -7.2 °C 9 °F /  -12.8 °C 30.48in /  1032.1hPa NW 1.7mph /  2.7km/h 9mph /  14.5km/h 64.4% 0.00in /  0mm 0 W/m2
20:54 18.9 °F /  -7.3 °C 8.5 °F /  -13.1 °C 30.48in /  1032.1hPa NW 1.3mph /  2.1km/h 9mph /  14.5km/h 63.2% 0.00in /  0mm 0 W/m2
20:59 18.8 °F /  -7.3 °C 8.3 °F /  -13.2 °C 30.48in /  1032.1hPa NW 1.7mph /  2.7km/h 9mph /  14.5km/h 63% 0.00in /  0mm 0 W/m2
21:04 18.8 °F /  -7.3 °C 8.3 °F /  -13.2 °C 30.48in /  1032.1hPa NW 1.3mph /  2.1km/h 9mph /  14.5km/h 63% 0.00in /  0mm 0 W/m2
21:09 18.6 °F /  -7.4 °C 8.1 °F /  -13.3 °C 30.49in /  1032.4hPa NW 0.9mph /  1.4km/h 5mph /  8km/h 63% 0.00in /  0mm 0 W/m2
21:14 18.6 °F /  -7.4 °C 8.1 °F /  -13.3 °C 30.50in /  1032.7hPa NW 1.4mph /  2.3km/h 9mph /  14.5km/h 63% 0.00in /  0mm 0 W/m2
21:19 18.5 °F /  -7.5 °C 8 °F /  -13.3 °C 30.50in /  1032.7hPa WNW 3.6mph /  5.8km/h 9mph /  14.5km/h 63% 0.00in /  0mm 0 W/m2
21:24 18.5 °F /  -7.5 °C 7.8 °F /  -13.4 °C 30.50in /  1032.7hPa NW 2.9mph /  4.7km/h 10mph /  16.1km/h 62.4% 0.00in /  0mm 0 W/m2
21:29 18.4 °F /  -7.6 °C 7.6 °F /  -13.6 °C 30.50in /  1032.7hPa NW 1.8mph /  2.9km/h 10mph /  16.1km/h 62% 0.00in /  0mm 0 W/m2
21:34 18.3 °F /  -7.6 °C 7.4 °F /  -13.7 °C 30.50in /  1032.7hPa NW 0.8mph /  1.3km/h 10mph /  16.1km/h 61.6% 0.00in /  0mm 0 W/m2
21:39 18.3 °F /  -7.6 °C 7.5 °F /  -13.6 °C 30.50in /  1032.7hPa NW 0.7mph /  1.1km/h 6mph /  9.7km/h 62.2% 0.00in /  0mm 0 W/m2
21:44 18.2 °F /  -7.7 °C 7.7 °F /  -13.5 °C 30.50in /  1032.7hPa NW 1.2mph /  1.9km/h 6mph /  9.7km/h 63% 0.00in /  0mm 0 W/m2
21:49 18.1 °F /  -7.7 °C 7.7 °F /  -13.5 °C 30.50in /  1032.7hPa NW 4.2mph /  6.8km/h 10mph /  16.1km/h 63% 0.00in /  0mm 0 W/m2
21:54 18 °F /  -7.8 °C 7.2 °F /  -13.8 °C 30.50in /  1032.7hPa NW 2.8mph /  4.5km/h 10mph /  16.1km/h 62% 0.00in /  0mm 0 W/m2
21:59 18 °F /  -7.8 °C 7.1 °F /  -13.8 °C 30.50in /  1032.7hPa NW 4.4mph /  7.1km/h 10mph /  16.1km/h 61.9% 0.00in /  0mm 0 W/m2
22:04 17.9 °F /  -7.8 °C 6.6 °F /  -14.1 °C 30.50in /  1032.7hPa NW 6.1mph /  9.8km/h 12mph /  19.3km/h 60.6% 0.00in /  0mm 0 W/m2
22:09 17.8 °F /  -7.9 °C 6.3 °F /  -14.3 °C 30.50in /  1032.7hPa NW 4.7mph /  7.6km/h 12mph /  19.3km/h 60% 0.00in /  0mm 0 W/m2
22:14 17.7 °F /  -7.9 °C 5.9 °F /  -14.5 °C 30.50in /  1032.7hPa NW 6.1mph /  9.8km/h 13mph /  20.9km/h 59.2% 0.00in /  0mm 0 W/m2
22:19 17.7 °F /  -7.9 °C 5.8 °F /  -14.6 °C 30.50in /  1032.7hPa NW 5.6mph /  9km/h 13mph /  20.9km/h 59% 0.00in /  0mm 0 W/m2
22:24 17.6 °F /  -8 °C 5.7 °F /  -14.6 °C 30.50in /  1032.7hPa NW 5.1mph /  8.2km/h 13mph /  20.9km/h 59% 0.00in /  0mm 0 W/m2
22:29 17.5 °F /  -8.1 °C 5.7 °F /  -14.6 °C 30.50in /  1032.7hPa NW 3.4mph /  5.5km/h 13mph /  20.9km/h 59% 0.00in /  0mm 0 W/m2
22:34 17.5 °F /  -8.1 °C 5.7 °F /  -14.6 °C 30.51in /  1033.1hPa NW 4.4mph /  7.1km/h 13mph /  20.9km/h 59.1% 0.00in /  0mm 0 W/m2
22:39 17.4 °F /  -8.1 °C 6 °F /  -14.4 °C 30.51in /  1033.1hPa NW 5mph /  8km/h 11mph /  17.7km/h 60.2% 0.00in /  0mm 0 W/m2
22:44 17.3 °F /  -8.2 °C 5.8 °F /  -14.6 °C 30.51in /  1033.1hPa NW 3.3mph /  5.3km/h 11mph /  17.7km/h 60% 0.00in /  0mm 0 W/m2
22:49 17.3 °F /  -8.2 °C 6.1 °F /  -14.4 °C 30.51in /  1033.1hPa NNW 0.4mph /  0.6km/h 11mph /  17.7km/h 60.9% 0.00in /  0mm 0 W/m2
22:54 17.2 °F /  -8.2 °C 6.3 °F /  -14.3 °C 30.51in /  1033.1hPa NNW 2.4mph /  3.9km/h 11mph /  17.7km/h 61.5% 0.00in /  0mm 0 W/m2
22:59 17.1 °F /  -8.3 °C 6.3 °F /  -14.3 °C 30.51in /  1033.1hPa NW 2.2mph /  3.5km/h 11mph /  17.7km/h 62% 0.00in /  0mm 0 W/m2
23:09 16.9 °F /  -8.4 °C 5.8 °F /  -14.6 °C 30.51in /  1033.1hPa NW 5.6mph /  9km/h 11mph /  17.7km/h 61% 0.00in /  0mm 0 W/m2
23:14 16.8 °F /  -8.4 °C 5.7 °F /  -14.6 °C 30.52in /  1033.4hPa NW 2.8mph /  4.5km/h 11mph /  17.7km/h 61% 0.00in /  0mm 0 W/m2
23:19 16.8 °F /  -8.4 °C 5.7 °F /  -14.6 °C 30.52in /  1033.4hPa NNE 0.3mph /  0.5km/h 11mph /  17.7km/h 61% 0.00in /  0mm 0 W/m2
23:24 16.7 °F /  -8.5 °C 5.4 °F /  -14.8 °C 30.53in /  1033.7hPa NE 0.1mph /  0.2km/h 11mph /  17.7km/h 60.5% 0.00in /  0mm 0 W/m2
23:29 16.6 °F /  -8.6 °C 5.5 °F /  -14.7 °C 30.53in /  1033.7hPa North 2.2mph /  3.5km/h 11mph /  17.7km/h 61% 0.00in /  0mm 0 W/m2
23:34 16.6 °F /  -8.6 °C 5.5 °F /  -14.7 °C 30.53in /  1033.7hPa NW 2.5mph /  4km/h 11mph /  17.7km/h 61% 0.00in /  0mm 0 W/m2
23:39 16.5 °F /  -8.6 °C 5.4 °F /  -14.8 °C 30.52in /  1033.4hPa NW 4.3mph /  6.9km/h 9mph /  14.5km/h 61% 0.00in /  0mm 0 W/m2
23:44 16.5 °F /  -8.6 °C 5.4 °F /  -14.8 °C 30.52in /  1033.4hPa NW 2.9mph /  4.7km/h 9mph /  14.5km/h 61% 0.00in /  0mm 0 W/m2
23:49 16.4 °F /  -8.7 °C 5.5 °F /  -14.7 °C 30.52in /  1033.4hPa NW 3.6mph /  5.8km/h 11mph /  17.7km/h 61.6% 0.00in /  0mm 0 W/m2
23:54 16.3 °F /  -8.7 °C 5.6 °F /  -14.7 °C 30.52in /  1033.4hPa NNW 4.2mph /  6.8km/h 11mph /  17.7km/h 62% 0.00in /  0mm 0 W/m2
23:59 16.3 °F /  -8.7 °C 5.3 °F /  -14.8 °C 30.52in /  1033.4hPa NW 2.8mph /  4.5km/h 11mph /  17.7km/h 61.3% 0.00in /  0mm 0 W/m2
Hartford County Weather
Compliments of Weather Underground - 2 mb